This is the latest recevied weather packets stored in our database for station/object N4AR. If no packets are shown the sender has not sent any weather packets the latest 1 day(s).
| Time | Temp. | Humidity | Pressure | Rain* | Wind** | Luminosity | Snow |
|---|---|---|---|---|---|---|---|
| 1778006391 | 30.56° C | 29% | 1014.7 hPa | 0 mm | 1.34 m/s, 3° | 790 W/m² | - |
| 1778006088 | 30° C | 30% | 1014.7 hPa | 0 mm | 0.89 m/s, 214° | 854 W/m² | - |
| 1778005785 | 30.56° C | 29% | 1014.7 hPa | 0 mm | 1.34 m/s, 64° | 888 W/m² | - |
| 1778005482 | 30.56° C | 29% | 1014.8 hPa | 0 mm | 0.89 m/s, 77° | 883 W/m² | - |
| 1778005178 | 31.11° C | 28% | 1014.9 hPa | 0 mm | 1.79 m/s, 89° | 894 W/m² | - |
| 1778004876 | 30.56° C | 29% | 1014.7 hPa | 0 mm | 0.45 m/s, 90° | 899 W/m² | - |
| 1778004572 | 30.56° C | 29% | 1014.7 hPa | 0 mm | 0.45 m/s, 92° | 896 W/m² | - |
| 1778004269 | 30.56° C | 29% | 1014.8 hPa | 0 mm | 0.89 m/s, 77° | 904 W/m² | - |
| 1778003965 | 30.56° C | 28% | 1014.8 hPa | 0 mm | 0.89 m/s, 151° | 909 W/m² | - |
| 1778003662 | 30.56° C | 28% | 1014.9 hPa | 0 mm | 0.89 m/s, 94° | 909 W/m² | - |
| 1778003358 | 30.56° C | 30% | 1014.8 hPa | 0 mm | 0.45 m/s, 78° | 908 W/m² | - |
| 1778003056 | 30° C | 31% | 1014.8 hPa | 0 mm | 0 m/s | 904 W/m² | - |
| 1778002752 | 30.56° C | 30% | 1015.1 hPa | 0 mm | 0.89 m/s, 47° | 906 W/m² | - |
| 1778002448 | 30.56° C | 29% | 1015 hPa | 0 mm | 0.89 m/s, 124° | 906 W/m² | - |
| 1778002145 | 30.56° C | 31% | 1015.2 hPa | 0 mm | 0.45 m/s, 93° | 903 W/m² | - |
| 1778001843 | 29.44° C | 31% | 1014.8 hPa | 0 mm | 0.45 m/s, 80° | 830 W/m² | - |
| 1778001542 | 29.44° C | 31% | 1015.2 hPa | 0 mm | 0.89 m/s, 93° | 91 W/m² | - |
| 1778001240 | 29.44° C | 31% | 1014.9 hPa | 0 mm | 0.89 m/s, 124° | 234 W/m² | - |
| 1778000936 | 28.89° C | 32% | 1015.1 hPa | 0 mm | 0.89 m/s, 7° | 873 W/m² | - |
| 1778000633 | 29.44° C | 32% | 1015.1 hPa | 0 mm | 1.79 m/s, 138° | 905 W/m² | - |
| 1778000328 | 29.44° C | 33% | 1015.3 hPa | 0 mm | 1.79 m/s, 312° | 124 W/m² | - |
| 1778000024 | 28.89° C | 32% | 1015.5 hPa | 0 mm | 0.89 m/s, 84° | 896 W/m² | - |
| 1777999720 | 28.89° C | 31% | 1015.5 hPa | 0 mm | 1.34 m/s, 96° | 290 W/m² | - |
| 1777999417 | 28.89° C | 32% | 1015.6 hPa | 0 mm | 0.89 m/s, 64° | 682 W/m² | - |
| 1777999115 | 28.89° C | 33% | 1015.7 hPa | 0 mm | 1.34 m/s, 60° | 885 W/m² | - |
* Rain latest hour (hover to see other rain measurements)
** Current wind speed in m/s (hover to see current wind gust speed)